sensor_id;sensor_type;location;lat;lon;timestamp;P1;durP1;ratioP1;P2;durP2;ratioP2
80322;SDS011;69636;52.372;13.610;2024-01-15T00:00:47;11.38;;;7.80;;
80322;SDS011;69636;52.372;13.610;2024-01-15T00:03:14;11.88;;;7.78;;
80322;SDS011;69636;52.372;13.610;2024-01-15T00:05:43;12.50;;;7.45;;
80322;SDS011;69636;52.372;13.610;2024-01-15T00:08:10;11.40;;;8.13;;
80322;SDS011;69636;52.372;13.610;2024-01-15T00:10:37;11.45;;;8.23;;
80322;SDS011;69636;52.372;13.610;2024-01-15T00:13:05;10.85;;;6.80;;
80322;SDS011;69636;52.372;13.610;2024-01-15T00:15:32;11.45;;;7.55;;
80322;SDS011;69636;52.372;13.610;2024-01-15T00:17:59;13.60;;;10.32;;
80322;SDS011;69636;52.372;13.610;2024-01-15T00:20:27;13.15;;;11.70;;
80322;SDS011;69636;52.372;13.610;2024-01-15T00:22:58;11.27;;;7.60;;
80322;SDS011;69636;52.372;13.610;2024-01-15T00:25:26;13.52;;;8.52;;
80322;SDS011;69636;52.372;13.610;2024-01-15T00:27:53;12.82;;;9.95;;
80322;SDS011;69636;52.372;13.610;2024-01-15T00:30:20;12.30;;;10.23;;
80322;SDS011;69636;52.372;13.610;2024-01-15T00:32:48;13.63;;;10.40;;
80322;SDS011;69636;52.372;13.610;2024-01-15T00:35:15;14.32;;;8.95;;
80322;SDS011;69636;52.372;13.610;2024-01-15T00:37:42;13.13;;;7.70;;
80322;SDS011;69636;52.372;13.610;2024-01-15T00:40:11;21.10;;;19.23;;
80322;SDS011;69636;52.372;13.610;2024-01-15T00:42:38;14.20;;;10.82;;
80322;SDS011;69636;52.372;13.610;2024-01-15T00:45:06;13.75;;;10.10;;
80322;SDS011;69636;52.372;13.610;2024-01-15T00:47:33;13.65;;;8.85;;
80322;SDS011;69636;52.372;13.610;2024-01-15T00:50:01;12.55;;;8.88;;
80322;SDS011;69636;52.372;13.610;2024-01-15T00:52:28;16.15;;;13.32;;
80322;SDS011;69636;52.372;13.610;2024-01-15T00:54:55;14.43;;;9.45;;
80322;SDS011;69636;52.372;13.610;2024-01-15T00:57:24;14.48;;;8.18;;
80322;SDS011;69636;52.372;13.610;2024-01-15T00:59:51;16.15;;;11.75;;
80322;SDS011;69636;52.372;13.610;2024-01-15T01:02:19;13.88;;;8.77;;
80322;SDS011;69636;52.372;13.610;2024-01-15T01:04:46;12.30;;;9.57;;
80322;SDS011;69636;52.372;13.610;2024-01-15T01:07:14;12.65;;;10.70;;
80322;SDS011;69636;52.372;13.610;2024-01-15T01:09:41;14.85;;;10.43;;
80322;SDS011;69636;52.372;13.610;2024-01-15T01:12:08;11.55;;;8.13;;
80322;SDS011;69636;52.372;13.610;2024-01-15T01:14:37;11.63;;;9.55;;
80322;SDS011;69636;52.372;13.610;2024-01-15T01:17:04;12.25;;;9.60;;
80322;SDS011;69636;52.372;13.610;2024-01-15T01:19:32;11.52;;;7.18;;
80322;SDS011;69636;52.372;13.610;2024-01-15T01:21:59;14.60;;;9.60;;
80322;SDS011;69636;52.372;13.610;2024-01-15T01:24:26;12.63;;;8.00;;
80322;SDS011;69636;52.372;13.610;2024-01-15T01:26:54;11.95;;;9.32;;
80322;SDS011;69636;52.372;13.610;2024-01-15T01:29:21;13.43;;;9.20;;
80322;SDS011;69636;52.372;13.610;2024-01-15T01:31:50;16.17;;;11.20;;
80322;SDS011;69636;52.372;13.610;2024-01-15T01:36:44;11.13;;;8.35;;
80322;SDS011;69636;52.372;13.610;2024-01-15T01:39:11;13.13;;;8.90;;
80322;SDS011;69636;52.372;13.610;2024-01-15T01:41:39;10.20;;;6.78;;
80322;SDS011;69636;52.372;13.610;2024-01-15T01:44:06;13.07;;;8.98;;
80322;SDS011;69636;52.372;13.610;2024-01-15T01:46:34;12.95;;;10.23;;
80322;SDS011;69636;52.372;13.610;2024-01-15T01:49:04;12.35;;;8.38;;
80322;SDS011;69636;52.372;13.610;2024-01-15T01:51:33;13.88;;;9.13;;
80322;SDS011;69636;52.372;13.610;2024-01-15T01:54:01;13.80;;;9.95;;
80322;SDS011;69636;52.372;13.610;2024-01-15T01:56:29;11.98;;;8.75;;
80322;SDS011;69636;52.372;13.610;2024-01-15T01:58:57;16.20;;;14.32;;
80322;SDS011;69636;52.372;13.610;2024-01-15T02:01:24;12.10;;;7.18;;
80322;SDS011;69636;52.372;13.610;2024-01-15T02:03:52;15.10;;;9.75;;
80322;SDS011;69636;52.372;13.610;2024-01-15T02:06:20;14.43;;;9.40;;
80322;SDS011;69636;52.372;13.610;2024-01-15T02:08:48;15.25;;;9.82;;
80322;SDS011;69636;52.372;13.610;2024-01-15T02:11:15;16.35;;;13.77;;
80322;SDS011;69636;52.372;13.610;2024-01-15T02:13:43;16.10;;;9.40;;
80322;SDS011;69636;52.372;13.610;2024-01-15T02:16:10;13.45;;;9.13;;
80322;SDS011;69636;52.372;13.610;2024-01-15T02:18:40;18.10;;;11.45;;
80322;SDS011;69636;52.372;13.610;2024-01-15T02:21:08;13.95;;;10.98;;
80322;SDS011;69636;52.372;13.610;2024-01-15T02:23:37;18.63;;;12.43;;
80322;SDS011;69636;52.372;13.610;2024-01-15T02:26:05;13.65;;;10.60;;
80322;SDS011;69636;52.372;13.610;2024-01-15T02:28:33;14.95;;;8.77;;
80322;SDS011;69636;52.372;13.610;2024-01-15T02:31:01;14.90;;;8.80;;
80322;SDS011;69636;52.372;13.610;2024-01-15T02:33:28;14.05;;;10.45;;
80322;SDS011;69636;52.372;13.610;2024-01-15T02:35:55;11.98;;;10.68;;
80322;SDS011;69636;52.372;13.610;2024-01-15T02:38:23;8.52;;;6.10;;
80322;SDS011;69636;52.372;13.610;2024-01-15T02:40:52;9.98;;;7.38;;
80322;SDS011;69636;52.372;13.610;2024-01-15T02:43:19;13.75;;;9.65;;
80322;SDS011;69636;52.372;13.610;2024-01-15T02:45:46;11.73;;;9.10;;
80322;SDS011;69636;52.372;13.610;2024-01-15T02:48:14;10.73;;;7.10;;
80322;SDS011;69636;52.372;13.610;2024-01-15T02:50:42;12.85;;;8.23;;
80322;SDS011;69636;52.372;13.610;2024-01-15T02:53:09;10.70;;;6.93;;
80322;SDS011;69636;52.372;13.610;2024-01-15T02:55:36;9.63;;;7.07;;
80322;SDS011;69636;52.372;13.610;2024-01-15T02:58:05;10.13;;;6.80;;
80322;SDS011;69636;52.372;13.610;2024-01-15T03:02:59;9.57;;;5.35;;
80322;SDS011;69636;52.372;13.610;2024-01-15T03:05:27;10.85;;;9.70;;
80322;SDS011;69636;52.372;13.610;2024-01-15T03:07:54;13.07;;;9.48;;
80322;SDS011;69636;52.372;13.610;2024-01-15T03:10:21;10.60;;;6.50;;
80322;SDS011;69636;52.372;13.610;2024-01-15T03:12:49;11.60;;;8.38;;
80322;SDS011;69636;52.372;13.610;2024-01-15T03:15:17;11.30;;;9.45;;
80322;SDS011;69636;52.372;13.610;2024-01-15T03:20:12;13.43;;;8.82;;
80322;SDS011;69636;52.372;13.610;2024-01-15T03:22:39;10.50;;;7.70;;
80322;SDS011;69636;52.372;13.610;2024-01-15T03:25:06;11.35;;;10.25;;
80322;SDS011;69636;52.372;13.610;2024-01-15T03:27:34;11.63;;;7.25;;
80322;SDS011;69636;52.372;13.610;2024-01-15T03:30:02;9.65;;;6.93;;
80322;SDS011;69636;52.372;13.610;2024-01-15T03:32:31;9.55;;;6.32;;
80322;SDS011;69636;52.372;13.610;2024-01-15T03:37:25;10.32;;;5.28;;
80322;SDS011;69636;52.372;13.610;2024-01-15T03:39:52;9.75;;;5.68;;
80322;SDS011;69636;52.372;13.610;2024-01-15T03:42:19;9.70;;;8.57;;
80322;SDS011;69636;52.372;13.610;2024-01-15T03:44:47;7.03;;;6.13;;
80322;SDS011;69636;52.372;13.610;2024-01-15T03:47:14;11.95;;;7.10;;
80322;SDS011;69636;52.372;13.610;2024-01-15T03:49:43;8.50;;;5.38;;
80322;SDS011;69636;52.372;13.610;2024-01-15T03:52:10;9.43;;;6.05;;
80322;SDS011;69636;52.372;13.610;2024-01-15T03:54:37;8.10;;;6.30;;
80322;SDS011;69636;52.372;13.610;2024-01-15T03:57:05;8.70;;;6.30;;
80322;SDS011;69636;52.372;13.610;2024-01-15T03:59:32;14.07;;;12.85;;
80322;SDS011;69636;52.372;13.610;2024-01-15T04:01:59;8.20;;;5.97;;
80322;SDS011;69636;52.372;13.610;2024-01-15T04:04:27;10.57;;;5.38;;
80322;SDS011;69636;52.372;13.610;2024-01-15T04:06:56;11.70;;;6.00;;
80322;SDS011;69636;52.372;13.610;2024-01-15T04:09:23;11.23;;;5.68;;
80322;SDS011;69636;52.372;13.610;2024-01-15T04:11:50;6.97;;;5.80;;
80322;SDS011;69636;52.372;13.610;2024-01-15T04:14:18;10.93;;;5.93;;
80322;SDS011;69636;52.372;13.610;2024-01-15T04:16:45;9.38;;;6.80;;
80322;SDS011;69636;52.372;13.610;2024-01-15T04:19:12;10.60;;;7.47;;
80322;SDS011;69636;52.372;13.610;2024-01-15T04:21:40;11.27;;;7.15;;
80322;SDS011;69636;52.372;13.610;2024-01-15T04:24:09;9.63;;;6.30;;
80322;SDS011;69636;52.372;13.610;2024-01-15T04:26:36;8.13;;;6.65;;
80322;SDS011;69636;52.372;13.610;2024-01-15T04:29:03;8.00;;;4.72;;
80322;SDS011;69636;52.372;13.610;2024-01-15T04:31:30;8.45;;;6.38;;
80322;SDS011;69636;52.372;13.610;2024-01-15T04:33:58;8.65;;;5.05;;
80322;SDS011;69636;52.372;13.610;2024-01-15T04:36:25;7.68;;;5.90;;
80322;SDS011;69636;52.372;13.610;2024-01-15T04:38:52;7.30;;;5.97;;
80322;SDS011;69636;52.372;13.610;2024-01-15T04:41:21;11.75;;;10.75;;
80322;SDS011;69636;52.372;13.610;2024-01-15T04:43:48;7.90;;;5.65;;
80322;SDS011;69636;52.372;13.610;2024-01-15T04:46:16;8.18;;;7.28;;
80322;SDS011;69636;52.372;13.610;2024-01-15T04:48:43;15.15;;;13.82;;
80322;SDS011;69636;52.372;13.610;2024-01-15T04:51:10;9.27;;;6.10;;
80322;SDS011;69636;52.372;13.610;2024-01-15T04:53:38;8.10;;;6.13;;
80322;SDS011;69636;52.372;13.610;2024-01-15T04:56:05;8.32;;;6.53;;
80322;SDS011;69636;52.372;13.610;2024-01-15T04:58:34;7.97;;;4.10;;
80322;SDS011;69636;52.372;13.610;2024-01-15T05:08:23;5.93;;;4.43;;
80322;SDS011;69636;52.372;13.610;2024-01-15T05:10:50;11.88;;;11.18;;
80322;SDS011;69636;52.372;13.610;2024-01-15T05:13:17;7.43;;;5.25;;
80322;SDS011;69636;52.372;13.610;2024-01-15T05:15:46;9.73;;;6.80;;
80322;SDS011;69636;52.372;13.610;2024-01-15T05:23:07;5.30;;;4.15;;
80322;SDS011;69636;52.372;13.610;2024-01-15T05:25:35;8.02;;;4.68;;
80322;SDS011;69636;52.372;13.610;2024-01-15T05:28:02;8.73;;;6.35;;
80322;SDS011;69636;52.372;13.610;2024-01-15T05:30:29;6.15;;;4.57;;
80322;SDS011;69636;52.372;13.610;2024-01-15T05:32:58;5.75;;;5.10;;
80322;SDS011;69636;52.372;13.610;2024-01-15T05:37:52;6.50;;;5.13;;
80322;SDS011;69636;52.372;13.610;2024-01-15T05:40:20;14.63;;;4.95;;
80322;SDS011;69636;52.372;13.610;2024-01-15T05:42:47;6.78;;;3.85;;
80322;SDS011;69636;52.372;13.610;2024-01-15T05:45:15;6.82;;;4.25;;
80322;SDS011;69636;52.372;13.610;2024-01-15T05:47:42;7.55;;;4.50;;
80322;SDS011;69636;52.372;13.610;2024-01-15T05:50:11;8.25;;;6.15;;
80322;SDS011;69636;52.372;13.610;2024-01-15T05:52:38;5.75;;;4.15;;
80322;SDS011;69636;52.372;13.610;2024-01-15T05:55:05;7.68;;;4.82;;
80322;SDS011;69636;52.372;13.610;2024-01-15T05:57:36;8.48;;;4.10;;
80322;SDS011;69636;52.372;13.610;2024-01-15T06:00:04;6.32;;;3.53;;
80322;SDS011;69636;52.372;13.610;2024-01-15T06:02:32;5.43;;;3.17;;
80322;SDS011;69636;52.372;13.610;2024-01-15T06:04:59;5.18;;;4.57;;
80322;SDS011;69636;52.372;13.610;2024-01-15T06:07:28;8.85;;;6.18;;
80322;SDS011;69636;52.372;13.610;2024-01-15T06:09:55;5.97;;;3.85;;
80322;SDS011;69636;52.372;13.610;2024-01-15T06:12:23;7.32;;;5.15;;
80322;SDS011;69636;52.372;13.610;2024-01-15T06:14:50;7.28;;;5.57;;
80322;SDS011;69636;52.372;13.610;2024-01-15T06:17:17;7.22;;;5.18;;
80322;SDS011;69636;52.372;13.610;2024-01-15T06:19:45;8.15;;;4.20;;
80322;SDS011;69636;52.372;13.610;2024-01-15T06:22:12;12.43;;;6.28;;
80322;SDS011;69636;52.372;13.610;2024-01-15T06:24:41;8.70;;;5.68;;
80322;SDS011;69636;52.372;13.610;2024-01-15T06:27:08;7.50;;;5.45;;
80322;SDS011;69636;52.372;13.610;2024-01-15T06:29:37;5.97;;;5.32;;
80322;SDS011;69636;52.372;13.610;2024-01-15T06:32:04;7.15;;;3.50;;
80322;SDS011;69636;52.372;13.610;2024-01-15T06:34:32;7.75;;;3.50;;
80322;SDS011;69636;52.372;13.610;2024-01-15T06:36:59;4.72;;;3.38;;
80322;SDS011;69636;52.372;13.610;2024-01-15T06:39:26;5.43;;;3.63;;
80322;SDS011;69636;52.372;13.610;2024-01-15T06:41:55;7.00;;;4.32;;
80322;SDS011;69636;52.372;13.610;2024-01-15T06:44:23;4.57;;;2.53;;
80322;SDS011;69636;52.372;13.610;2024-01-15T06:46:50;5.88;;;3.58;;
80322;SDS011;69636;52.372;13.610;2024-01-15T06:49:17;6.40;;;3.60;;
80322;SDS011;69636;52.372;13.610;2024-01-15T06:51:45;6.80;;;4.72;;
80322;SDS011;69636;52.372;13.610;2024-01-15T06:54:15;4.03;;;3.33;;
80322;SDS011;69636;52.372;13.610;2024-01-15T06:56:43;4.75;;;3.05;;
80322;SDS011;69636;52.372;13.610;2024-01-15T06:59:11;6.07;;;2.58;;
80322;SDS011;69636;52.372;13.610;2024-01-15T07:01:42;6.15;;;3.08;;
80322;SDS011;69636;52.372;13.610;2024-01-15T07:04:09;5.53;;;3.55;;
80322;SDS011;69636;52.372;13.610;2024-01-15T07:06:37;5.80;;;3.13;;
80322;SDS011;69636;52.372;13.610;2024-01-15T07:09:04;6.50;;;4.00;;
80322;SDS011;69636;52.372;13.610;2024-01-15T07:11:32;4.80;;;3.40;;
80322;SDS011;69636;52.372;13.610;2024-01-15T07:13:59;4.47;;;3.10;;
80322;SDS011;69636;52.372;13.610;2024-01-15T07:16:28;8.75;;;2.78;;
80322;SDS011;69636;52.372;13.610;2024-01-15T07:19:04;2.92;;;2.30;;
80322;SDS011;69636;52.372;13.610;2024-01-15T07:21:31;4.80;;;2.33;;
80322;SDS011;69636;52.372;13.610;2024-01-15T07:23:59;4.93;;;2.28;;
80322;SDS011;69636;52.372;13.610;2024-01-15T07:26:26;4.43;;;3.58;;
80322;SDS011;69636;52.372;13.610;2024-01-15T07:28:53;4.45;;;2.67;;
80322;SDS011;69636;52.372;13.610;2024-01-15T07:31:21;5.57;;;2.92;;
80322;SDS011;69636;52.372;13.610;2024-01-15T07:33:50;6.53;;;2.65;;
80322;SDS011;69636;52.372;13.610;2024-01-15T07:36:17;9.23;;;2.90;;
80322;SDS011;69636;52.372;13.610;2024-01-15T07:38:44;4.43;;;4.05;;
80322;SDS011;69636;52.372;13.610;2024-01-15T07:41:12;5.95;;;3.38;;
80322;SDS011;69636;52.372;13.610;2024-01-15T07:43:40;5.82;;;3.55;;
80322;SDS011;69636;52.372;13.610;2024-01-15T07:46:07;3.88;;;3.55;;
80322;SDS011;69636;52.372;13.610;2024-01-15T07:48:35;5.22;;;4.75;;
80322;SDS011;69636;52.372;13.610;2024-01-15T07:51:04;4.80;;;1.50;;
80322;SDS011;69636;52.372;13.610;2024-01-15T07:53:31;4.72;;;3.35;;
80322;SDS011;69636;52.372;13.610;2024-01-15T07:55:58;4.13;;;2.55;;
80322;SDS011;69636;52.372;13.610;2024-01-15T07:58:26;3.47;;;3.17;;
80322;SDS011;69636;52.372;13.610;2024-01-15T08:00:53;5.07;;;2.53;;
80322;SDS011;69636;52.372;13.610;2024-01-15T08:03:21;5.35;;;3.17;;
80322;SDS011;69636;52.372;13.610;2024-01-15T08:05:48;3.05;;;2.47;;
80322;SDS011;69636;52.372;13.610;2024-01-15T08:08:17;6.90;;;4.35;;
80322;SDS011;69636;52.372;13.610;2024-01-15T08:13:11;5.28;;;2.28;;
80322;SDS011;69636;52.372;13.610;2024-01-15T08:15:40;5.32;;;4.47;;
80322;SDS011;69636;52.372;13.610;2024-01-15T08:18:08;6.50;;;4.68;;
80322;SDS011;69636;52.372;13.610;2024-01-15T08:20:35;3.83;;;2.20;;
80322;SDS011;69636;52.372;13.610;2024-01-15T08:23:03;3.65;;;3.33;;
80322;SDS011;69636;52.372;13.610;2024-01-15T08:25:32;3.17;;;2.15;;
80322;SDS011;69636;52.372;13.610;2024-01-15T08:27:59;2.95;;;2.47;;
80322;SDS011;69636;52.372;13.610;2024-01-15T08:30:26;3.50;;;2.53;;
80322;SDS011;69636;52.372;13.610;2024-01-15T08:32:54;4.47;;;3.53;;
80322;SDS011;69636;52.372;13.610;2024-01-15T08:35:24;5.78;;;2.70;;
80322;SDS011;69636;52.372;13.610;2024-01-15T08:37:51;4.53;;;3.13;;
80322;SDS011;69636;52.372;13.610;2024-01-15T08:40:19;7.15;;;4.05;;
80322;SDS011;69636;52.372;13.610;2024-01-15T08:42:48;3.95;;;2.35;;
80322;SDS011;69636;52.372;13.610;2024-01-15T08:45:15;5.60;;;3.28;;
80322;SDS011;69636;52.372;13.610;2024-01-15T08:47:42;7.55;;;3.25;;
80322;SDS011;69636;52.372;13.610;2024-01-15T08:50:10;4.68;;;3.28;;
80322;SDS011;69636;52.372;13.610;2024-01-15T08:52:37;7.07;;;2.67;;
80322;SDS011;69636;52.372;13.610;2024-01-15T08:55:05;7.20;;;6.60;;
80322;SDS011;69636;52.372;13.610;2024-01-15T08:57:32;5.47;;;4.30;;
80322;SDS011;69636;52.372;13.610;2024-01-15T09:00:01;3.83;;;2.55;;
80322;SDS011;69636;52.372;13.610;2024-01-15T09:02:29;7.57;;;4.20;;
80322;SDS011;69636;52.372;13.610;2024-01-15T09:04:56;3.83;;;3.47;;
80322;SDS011;69636;52.372;13.610;2024-01-15T09:07:24;3.95;;;2.90;;
80322;SDS011;69636;52.372;13.610;2024-01-15T09:09:51;5.57;;;3.00;;
80322;SDS011;69636;52.372;13.610;2024-01-15T09:12:18;5.50;;;3.47;;
80322;SDS011;69636;52.372;13.610;2024-01-15T09:14:46;6.05;;;5.55;;
80322;SDS011;69636;52.372;13.610;2024-01-15T09:17:15;6.18;;;3.88;;
80322;SDS011;69636;52.372;13.610;2024-01-15T09:22:09;3.20;;;2.70;;
80322;SDS011;69636;52.372;13.610;2024-01-15T09:24:36;6.45;;;3.65;;
80322;SDS011;69636;52.372;13.610;2024-01-15T09:27:04;7.38;;;5.05;;
80322;SDS011;69636;52.372;13.610;2024-01-15T09:29:31;7.03;;;5.15;;
80322;SDS011;69636;52.372;13.610;2024-01-15T09:31:59;5.57;;;3.38;;
80322;SDS011;69636;52.372;13.610;2024-01-15T09:34:27;4.80;;;3.80;;
80322;SDS011;69636;52.372;13.610;2024-01-15T09:36:55;6.88;;;3.92;;
80322;SDS011;69636;52.372;13.610;2024-01-15T09:39:22;7.32;;;5.20;;
80322;SDS011;69636;52.372;13.610;2024-01-15T09:41:50;5.95;;;4.05;;
80322;SDS011;69636;52.372;13.610;2024-01-15T09:44:17;5.55;;;3.08;;
80322;SDS011;69636;52.372;13.610;2024-01-15T09:46:45;7.35;;;4.38;;
80322;SDS011;69636;52.372;13.610;2024-01-15T09:49:13;8.52;;;3.90;;
80322;SDS011;69636;52.372;13.610;2024-01-15T09:51:42;3.92;;;3.25;;
80322;SDS011;69636;52.372;13.610;2024-01-15T09:54:19;6.72;;;4.57;;
80322;SDS011;69636;52.372;13.610;2024-01-15T09:56:46;7.18;;;4.95;;
80322;SDS011;69636;52.372;13.610;2024-01-15T09:59:14;6.78;;;3.15;;
80322;SDS011;69636;52.372;13.610;2024-01-15T10:01:43;4.65;;;2.03;;
80322;SDS011;69636;52.372;13.610;2024-01-15T10:04:11;4.13;;;2.20;;
80322;SDS011;69636;52.372;13.610;2024-01-15T10:06:38;7.50;;;4.05;;
80322;SDS011;69636;52.372;13.610;2024-01-15T10:09:07;5.00;;;4.13;;
80322;SDS011;69636;52.372;13.610;2024-01-15T10:11:35;5.60;;;3.33;;
80322;SDS011;69636;52.372;13.610;2024-01-15T10:14:02;4.18;;;3.88;;
80322;SDS011;69636;52.372;13.610;2024-01-15T10:16:31;4.40;;;3.55;;
80322;SDS011;69636;52.372;13.610;2024-01-15T10:18:58;5.05;;;3.03;;
80322;SDS011;69636;52.372;13.610;2024-01-15T10:21:26;5.38;;;4.88;;
80322;SDS011;69636;52.372;13.610;2024-01-15T10:23:54;5.05;;;4.55;;
80322;SDS011;69636;52.372;13.610;2024-01-15T10:26:30;3.50;;;2.85;;
80322;SDS011;69636;52.372;13.610;2024-01-15T10:28:59;3.47;;;3.15;;
80322;SDS011;69636;52.372;13.610;2024-01-15T10:31:26;5.75;;;4.63;;
80322;SDS011;69636;52.372;13.610;2024-01-15T10:34:00;3.78;;;2.53;;
80322;SDS011;69636;52.372;13.610;2024-01-15T10:36:38;5.75;;;5.18;;
80322;SDS011;69636;52.372;13.610;2024-01-15T10:39:06;4.80;;;4.03;;
80322;SDS011;69636;52.372;13.610;2024-01-15T10:41:35;4.07;;;3.00;;
80322;SDS011;69636;52.372;13.610;2024-01-15T10:44:03;4.65;;;2.97;;
80322;SDS011;69636;52.372;13.610;2024-01-15T10:46:30;4.20;;;3.85;;
80322;SDS011;69636;52.372;13.610;2024-01-15T10:48:59;5.72;;;5.30;;
80322;SDS011;69636;52.372;13.610;2024-01-15T10:51:27;3.88;;;3.45;;
80322;SDS011;69636;52.372;13.610;2024-01-15T10:53:55;4.20;;;2.97;;
80322;SDS011;69636;52.372;13.610;2024-01-15T10:56:23;4.28;;;3.83;;
80322;SDS011;69636;52.372;13.610;2024-01-15T10:58:55;4.88;;;2.67;;
80322;SDS011;69636;52.372;13.610;2024-01-15T11:01:26;3.42;;;2.28;;
80322;SDS011;69636;52.372;13.610;2024-01-15T11:03:57;4.07;;;3.10;;
80322;SDS011;69636;52.372;13.610;2024-01-15T11:06:25;3.40;;;3.05;;
80322;SDS011;69636;52.372;13.610;2024-01-15T11:08:55;3.17;;;2.75;;
80322;SDS011;69636;52.372;13.610;2024-01-15T11:11:22;4.65;;;2.40;;
80322;SDS011;69636;52.372;13.610;2024-01-15T11:13:50;4.28;;;2.67;;
80322;SDS011;69636;52.372;13.610;2024-01-15T11:16:18;3.30;;;2.38;;
80322;SDS011;69636;52.372;13.610;2024-01-15T11:19:01;3.30;;;3.00;;
80322;SDS011;69636;52.372;13.610;2024-01-15T11:21:29;2.25;;;1.92;;
80322;SDS011;69636;52.372;13.610;2024-01-15T11:23:58;4.35;;;2.72;;
80322;SDS011;69636;52.372;13.610;2024-01-15T11:26:27;4.60;;;2.22;;
80322;SDS011;69636;52.372;13.610;2024-01-15T11:28:59;3.58;;;2.40;;
80322;SDS011;69636;52.372;13.610;2024-01-15T11:31:30;3.03;;;2.75;;
80322;SDS011;69636;52.372;13.610;2024-01-15T11:37:20;3.90;;;2.60;;
80322;SDS011;69636;52.372;13.610;2024-01-15T11:39:48;4.20;;;3.90;;
80322;SDS011;69636;52.372;13.610;2024-01-15T11:42:17;4.28;;;2.83;;
80322;SDS011;69636;52.372;13.610;2024-01-15T11:44:47;4.82;;;4.15;;
80322;SDS011;69636;52.372;13.610;2024-01-15T11:47:16;4.22;;;3.22;;
80322;SDS011;69636;52.372;13.610;2024-01-15T11:50:02;3.28;;;1.60;;
80322;SDS011;69636;52.372;13.610;2024-01-15T11:52:32;2.67;;;1.90;;
80322;SDS011;69636;52.372;13.610;2024-01-15T11:55:01;3.72;;;2.38;;
80322;SDS011;69636;52.372;13.610;2024-01-15T11:57:37;2.35;;;1.38;;
80322;SDS011;69636;52.372;13.610;2024-01-15T12:00:08;2.95;;;2.47;;
80322;SDS011;69636;52.372;13.610;2024-01-15T12:05:05;5.05;;;4.65;;
80322;SDS011;69636;52.372;13.610;2024-01-15T12:07:32;4.53;;;4.18;;
80322;SDS011;69636;52.372;13.610;2024-01-15T12:10:00;3.47;;;2.65;;
80322;SDS011;69636;52.372;13.610;2024-01-15T12:12:32;5.00;;;4.65;;
80322;SDS011;69636;52.372;13.610;2024-01-15T12:15:06;4.32;;;3.92;;
80322;SDS011;69636;52.372;13.610;2024-01-15T12:17:34;3.58;;;2.90;;
80322;SDS011;69636;52.372;13.610;2024-01-15T12:20:03;3.10;;;1.70;;
80322;SDS011;69636;52.372;13.610;2024-01-15T12:22:31;3.00;;;2.70;;
80322;SDS011;69636;52.372;13.610;2024-01-15T12:25:19;3.65;;;3.33;;
80322;SDS011;69636;52.372;13.610;2024-01-15T12:27:46;3.85;;;3.17;;
80322;SDS011;69636;52.372;13.610;2024-01-15T12:30:14;8.80;;;2.25;;
80322;SDS011;69636;52.372;13.610;2024-01-15T12:32:42;3.60;;;1.90;;
80322;SDS011;69636;52.372;13.610;2024-01-15T12:35:11;3.55;;;2.50;;
80322;SDS011;69636;52.372;13.610;2024-01-15T12:40:07;6.68;;;6.28;;
80322;SDS011;69636;52.372;13.610;2024-01-15T12:42:35;4.10;;;2.75;;
80322;SDS011;69636;52.372;13.610;2024-01-15T12:45:03;5.22;;;3.05;;
80322;SDS011;69636;52.372;13.610;2024-01-15T12:47:32;4.60;;;4.20;;
80322;SDS011;69636;52.372;13.610;2024-01-15T12:49:59;5.15;;;4.25;;
80322;SDS011;69636;52.372;13.610;2024-01-15T12:52:43;4.43;;;3.72;;
80322;SDS011;69636;52.372;13.610;2024-01-15T12:55:10;3.03;;;2.28;;
80322;SDS011;69636;52.372;13.610;2024-01-15T12:57:38;2.35;;;1.85;;
80322;SDS011;69636;52.372;13.610;2024-01-15T13:00:05;2.45;;;2.25;;
80322;SDS011;69636;52.372;13.610;2024-01-15T13:02:34;5.00;;;4.63;;
80322;SDS011;69636;52.372;13.610;2024-01-15T13:05:02;2.38;;;2.17;;
80322;SDS011;69636;52.372;13.610;2024-01-15T13:07:30;2.70;;;2.50;;
80322;SDS011;69636;52.372;13.610;2024-01-15T13:09:59;4.30;;;3.75;;
80322;SDS011;69636;52.372;13.610;2024-01-15T13:12:26;3.85;;;1.85;;
80322;SDS011;69636;52.372;13.610;2024-01-15T13:14:54;3.00;;;2.33;;
80322;SDS011;69636;52.372;13.610;2024-01-15T13:17:21;4.35;;;3.95;;
80322;SDS011;69636;52.372;13.610;2024-01-15T13:19:49;3.15;;;2.85;;
80322;SDS011;69636;52.372;13.610;2024-01-15T13:22:16;3.97;;;3.60;;
80322;SDS011;69636;52.372;13.610;2024-01-15T13:24:44;3.47;;;3.17;;
80322;SDS011;69636;52.372;13.610;2024-01-15T13:27:13;4.65;;;4.20;;
80322;SDS011;69636;52.372;13.610;2024-01-15T13:32:07;4.03;;;1.88;;
80322;SDS011;69636;52.372;13.610;2024-01-15T13:34:34;3.03;;;1.60;;
80322;SDS011;69636;52.372;13.610;2024-01-15T13:37:02;4.60;;;4.32;;
80322;SDS011;69636;52.372;13.610;2024-01-15T13:39:29;3.95;;;3.65;;
80322;SDS011;69636;52.372;13.610;2024-01-15T13:41:57;3.58;;;2.08;;
80322;SDS011;69636;52.372;13.610;2024-01-15T13:44:25;5.97;;;4.25;;
80322;SDS011;69636;52.372;13.610;2024-01-15T13:51:47;4.18;;;1.85;;
80322;SDS011;69636;52.372;13.610;2024-01-15T13:54:15;5.03;;;2.05;;
80322;SDS011;69636;52.372;13.610;2024-01-15T13:56:42;4.85;;;3.20;;
80322;SDS011;69636;52.372;13.610;2024-01-15T13:59:10;4.38;;;2.58;;
80322;SDS011;69636;52.372;13.610;2024-01-15T14:01:38;5.25;;;3.90;;
80322;SDS011;69636;52.372;13.610;2024-01-15T14:06:33;4.90;;;3.70;;
80322;SDS011;69636;52.372;13.610;2024-01-15T14:09:00;5.00;;;2.67;;
80322;SDS011;69636;52.372;13.610;2024-01-15T14:11:27;6.47;;;5.97;;
80322;SDS011;69636;52.372;13.610;2024-01-15T14:13:55;5.32;;;4.82;;
80322;SDS011;69636;52.372;13.610;2024-01-15T14:16:22;4.97;;;4.47;;
80322;SDS011;69636;52.372;13.610;2024-01-15T14:18:53;3.92;;;3.05;;
80322;SDS011;69636;52.372;13.610;2024-01-15T14:21:21;4.28;;;3.00;;
80322;SDS011;69636;52.372;13.610;2024-01-15T14:24:36;6.53;;;3.88;;
80322;SDS011;69636;52.372;13.610;2024-01-15T14:26:46;3.78;;;2.70;;
80322;SDS011;69636;52.372;13.610;2024-01-15T14:29:13;4.03;;;2.65;;
80322;SDS011;69636;52.372;13.610;2024-01-15T14:31:40;5.22;;;3.95;;
80322;SDS011;69636;52.372;13.610;2024-01-15T14:34:09;7.40;;;3.53;;
80322;SDS011;69636;52.372;13.610;2024-01-15T14:36:37;4.43;;;3.63;;
80322;SDS011;69636;52.372;13.610;2024-01-15T14:39:04;5.88;;;3.90;;
80322;SDS011;69636;52.372;13.610;2024-01-15T14:41:31;4.95;;;3.42;;
80322;SDS011;69636;52.372;13.610;2024-01-15T14:43:59;5.40;;;4.45;;
80322;SDS011;69636;52.372;13.610;2024-01-15T14:46:26;4.35;;;3.90;;
80322;SDS011;69636;52.372;13.610;2024-01-15T14:48:53;7.18;;;5.93;;
80322;SDS011;69636;52.372;13.610;2024-01-15T14:51:23;7.80;;;5.68;;
80322;SDS011;69636;52.372;13.610;2024-01-15T14:53:50;5.82;;;4.30;;
80322;SDS011;69636;52.372;13.610;2024-01-15T14:56:17;4.78;;;3.88;;
80322;SDS011;69636;52.372;13.610;2024-01-15T14:58:45;5.13;;;4.70;;
80322;SDS011;69636;52.372;13.610;2024-01-15T15:01:12;4.68;;;3.17;;
80322;SDS011;69636;52.372;13.610;2024-01-15T15:03:40;4.95;;;4.18;;
80322;SDS011;69636;52.372;13.610;2024-01-15T15:09:31;5.28;;;2.45;;
80322;SDS011;69636;52.372;13.610;2024-01-15T15:11:59;3.33;;;2.97;;
80322;SDS011;69636;52.372;13.610;2024-01-15T15:14:26;3.95;;;3.13;;
80322;SDS011;69636;52.372;13.610;2024-01-15T15:16:53;4.05;;;3.30;;
80322;SDS011;69636;52.372;13.610;2024-01-15T15:19:21;3.60;;;2.30;;
80322;SDS011;69636;52.372;13.610;2024-01-15T15:21:48;4.57;;;3.28;;
80322;SDS011;69636;52.372;13.610;2024-01-15T15:24:16;4.70;;;2.97;;
80322;SDS011;69636;52.372;13.610;2024-01-15T15:26:45;4.45;;;2.90;;